createdAt,value
2018-04-28T00:00:34.901Z,99.57
2018-04-28T00:01:35.572Z,99.47
2018-04-28T00:02:36.254Z,99.18
2018-04-28T00:03:36.932Z,99.47
2018-04-28T00:04:37.597Z,99.76
2018-04-28T00:05:38.269Z,99.66
2018-04-28T00:06:38.940Z,99.28
2018-04-28T00:07:39.610Z,99.85
2018-04-28T00:08:40.286Z,99.99
2018-04-28T00:09:40.961Z,99.57
2018-04-28T00:10:41.627Z,99.99
2018-04-28T00:11:42.300Z,99.85
2018-04-28T00:12:42.976Z,99.85
2018-04-28T00:13:43.646Z,99.99
2018-04-28T00:14:44.318Z,99.99
2018-04-28T00:15:44.984Z,99.99
2018-04-28T00:16:45.656Z,99.99
2018-04-28T00:17:46.330Z,99.99
2018-04-28T00:18:47.002Z,99.99
2018-04-28T00:19:47.671Z,99.99
2018-04-28T00:20:48.349Z,99.99
2018-04-28T00:21:49.019Z,99.99
2018-04-28T00:22:49.690Z,99.99
2018-04-28T00:23:50.361Z,99.99
2018-04-28T00:24:51.034Z,99.99
2018-04-28T00:25:51.705Z,99.99
2018-04-28T00:26:52.376Z,99.99
2018-04-28T00:27:53.046Z,99.99
2018-04-28T00:28:53.716Z,99.99
2018-04-28T00:29:54.388Z,99.99
2018-04-28T00:30:55.067Z,99.99
2018-04-28T00:31:55.736Z,99.99
2018-04-28T00:32:56.411Z,99.99
2018-04-28T00:33:57.088Z,99.99
2018-04-28T00:34:57.759Z,99.99
2018-04-28T00:35:58.432Z,99.99
2018-04-28T00:36:59.106Z,99.99
2018-04-28T00:37:59.785Z,99.99
2018-04-28T00:39:00.457Z,99.99
2018-04-28T00:40:01.131Z,99.99
2018-04-28T00:41:01.802Z,99.99
2018-04-28T00:42:02.474Z,99.99
2018-04-28T00:43:03.145Z,99.99
2018-04-28T00:44:03.825Z,99.99
2018-04-28T00:45:04.499Z,99.99
2018-04-28T00:46:05.174Z,99.99
2018-04-28T00:47:05.844Z,99.99
2018-04-28T00:48:06.515Z,99.99
2018-04-28T00:49:07.188Z,99.99
2018-04-28T00:50:07.866Z,99.99
2018-04-28T00:51:08.550Z,99.99
2018-04-28T00:52:09.204Z,99.99
2018-04-28T00:53:09.876Z,99.99
2018-04-28T00:54:10.545Z,99.99
2018-04-28T00:55:11.219Z,99.99
2018-04-28T00:56:11.890Z,99.99
2018-04-28T00:57:12.568Z,99.99
2018-04-28T00:58:13.240Z,99.99
2018-04-28T00:59:13.913Z,99.99
2018-04-28T01:00:14.582Z,99.99
2018-04-28T01:01:15.255Z,99.99
2018-04-28T01:02:15.932Z,99.99
2018-04-28T01:03:16.603Z,99.99
2018-04-28T01:04:17.275Z,99.99
2018-04-28T01:05:17.949Z,99.99
2018-04-28T01:06:18.620Z,99.99
2018-04-28T01:07:19.291Z,99.99
2018-04-28T01:08:19.968Z,99.99
2018-04-28T01:09:20.637Z,99.99
2018-04-28T01:10:21.350Z,99.99
2018-04-28T01:11:21.978Z,99.99
2018-04-28T01:12:22.651Z,99.99
2018-04-28T01:13:23.326Z,99.99
2018-04-28T01:14:23.998Z,99.99
2018-04-28T01:15:24.669Z,99.99
2018-04-28T01:16:25.339Z,99.99
2018-04-28T01:17:26.013Z,99.99
2018-04-28T01:18:26.685Z,99.99
2018-04-28T01:19:27.353Z,99.99
2018-04-28T01:20:28.029Z,99.99
2018-04-28T01:21:28.700Z,99.99
2018-04-28T01:22:29.374Z,99.99
2018-04-28T01:23:30.044Z,99.99
2018-04-28T01:24:30.716Z,99.99
2018-04-28T01:25:31.394Z,99.99
2018-04-28T01:26:32.058Z,99.99
2018-04-28T01:27:32.732Z,99.99
2018-04-28T01:28:33.401Z,99.99
2018-04-28T01:29:34.072Z,99.99
2018-04-28T01:30:34.747Z,99.99
2018-04-28T01:31:35.422Z,99.99
2018-04-28T01:32:36.093Z,99.99
2018-04-28T01:33:36.771Z,99.99
2018-04-28T01:34:37.442Z,99.99
2018-04-28T01:35:38.118Z,99.99
2018-04-28T01:36:38.788Z,99.99
2018-04-28T01:37:39.458Z,99.99
2018-04-28T01:38:40.138Z,99.99
2018-04-28T01:39:40.814Z,99.99
2018-04-28T01:40:41.488Z,99.99
2018-04-28T01:41:42.156Z,99.99
2018-04-28T01:42:42.829Z,99.99
2018-04-28T01:43:43.502Z,99.99
2018-04-28T01:44:44.176Z,99.99
2018-04-28T01:45:44.854Z,99.99
2018-04-28T01:46:45.529Z,99.99
2018-04-28T01:47:46.200Z,99.99
2018-04-28T01:48:46.881Z,99.99
2018-04-28T01:49:47.552Z,99.99
2018-04-28T01:50:48.223Z,99.99
2018-04-28T01:51:48.897Z,99.99
2018-04-28T01:52:49.568Z,99.99
2018-04-28T01:53:50.241Z,99.99
2018-04-28T01:54:50.913Z,99.99
2018-04-28T01:55:51.583Z,99.99
2018-04-28T01:56:52.257Z,99.99
2018-04-28T01:57:52.928Z,99.99
2018-04-28T01:58:53.599Z,99.99
2018-04-28T01:59:54.274Z,99.99
2018-04-28T02:00:54.948Z,99.99
2018-04-28T02:01:55.616Z,99.99
2018-04-28T02:02:56.289Z,99.99
2018-04-28T02:03:56.959Z,99.99
2018-04-28T02:04:57.630Z,99.99
2018-04-28T02:05:58.306Z,99.99
2018-04-28T02:06:58.975Z,99.99
2018-04-28T02:07:59.653Z,99.99
2018-04-28T02:09:00.326Z,99.99
2018-04-28T02:10:00.995Z,99.99
2018-04-28T02:11:01.667Z,99.99
2018-04-28T02:12:02.341Z,99.99
2018-04-28T02:13:03.012Z,99.99
2018-04-28T02:14:03.679Z,99.99
2018-04-28T02:15:04.350Z,99.99
2018-04-28T02:16:05.023Z,99.99
2018-04-28T02:17:05.696Z,99.99
2018-04-28T02:18:06.363Z,99.99
2018-04-28T02:19:07.034Z,99.99
2018-04-28T02:20:07.704Z,99.99
2018-04-28T02:21:08.378Z,99.99
2018-04-28T02:22:09.065Z,99.99
2018-04-28T02:23:09.739Z,99.99
2018-04-28T02:24:10.412Z,99.99
2018-04-28T02:25:11.081Z,99.99
2018-04-28T02:26:11.755Z,99.99
2018-04-28T02:27:12.431Z,99.99
2018-04-28T02:28:13.095Z,99.99
2018-04-28T02:29:13.769Z,99.99
2018-04-28T02:30:14.440Z,99.99
2018-04-28T02:31:15.117Z,99.99
2018-04-28T02:32:15.789Z,99.99
2018-04-28T02:33:16.460Z,99.99
2018-04-28T02:34:17.139Z,99.99
2018-04-28T02:35:17.809Z,99.99
2018-04-28T02:36:18.482Z,99.99
2018-04-28T02:37:19.153Z,99.99
2018-04-28T02:38:19.824Z,99.99
2018-04-28T02:39:20.492Z,99.99
2018-04-28T02:40:21.161Z,99.99
2018-04-28T02:41:21.834Z,99.99
2018-04-28T02:42:22.505Z,99.99
2018-04-28T02:43:23.187Z,99.99
2018-04-28T02:44:23.858Z,99.99
2018-04-28T02:45:24.532Z,99.99
2018-04-28T02:46:25.204Z,99.99
2018-04-28T02:47:25.876Z,99.99
2018-04-28T02:48:26.555Z,99.99
2018-04-28T02:49:27.220Z,99.99
2018-04-28T02:50:27.887Z,99.99
2018-04-28T02:51:28.561Z,99.99
2018-04-28T02:52:29.232Z,99.99
2018-04-28T02:53:29.907Z,99.99
2018-04-28T02:54:30.582Z,99.99
2018-04-28T02:55:31.254Z,99.99
2018-04-28T02:56:31.925Z,99.99
2018-04-28T02:57:32.604Z,99.99
2018-04-28T02:58:33.276Z,99.99
2018-04-28T02:59:33.951Z,99.99
2018-04-28T03:00:34.625Z,99.99
2018-04-28T03:01:35.288Z,99.99
2018-04-28T03:02:35.971Z,99.99
2018-04-28T03:03:36.660Z,99.99
2018-04-28T03:04:37.330Z,99.99
2018-04-28T03:05:38.000Z,99.99
2018-04-28T03:06:38.680Z,99.99
2018-04-28T03:07:39.351Z,99.99
2018-04-28T03:08:40.025Z,99.99
2018-04-28T03:09:40.696Z,99.99
2018-04-28T03:10:41.365Z,99.99
2018-04-28T03:11:42.035Z,99.99
2018-04-28T03:12:42.711Z,99.99
2018-04-28T03:13:43.380Z,99.99
2018-04-28T03:14:44.057Z,99.99
2018-04-28T03:15:44.729Z,99.99
2018-04-28T03:16:45.403Z,99.99
2018-04-28T03:17:46.076Z,99.99
2018-04-28T03:18:46.753Z,99.99
2018-04-28T03:19:47.423Z,99.99
2018-04-28T03:20:48.108Z,99.99
2018-04-28T03:21:48.774Z,99.99
2018-04-28T03:22:49.448Z,99.99
2018-04-28T03:23:50.124Z,99.99
2018-04-28T03:24:50.796Z,99.99
2018-04-28T03:25:51.473Z,99.99
2018-04-28T03:26:52.144Z,99.99
2018-04-28T03:27:52.815Z,99.99
2018-04-28T03:28:53.487Z,99.99
2018-04-28T03:29:54.160Z,99.99
2018-04-28T03:30:54.831Z,99.99
2018-04-28T03:31:55.515Z,99.99
2018-04-28T03:32:56.173Z,99.99
2018-04-28T03:33:56.852Z,99.99
2018-04-28T03:34:57.527Z,99.99
2018-04-28T03:35:58.199Z,99.99
2018-04-28T03:36:58.863Z,99.99
2018-04-28T03:37:59.539Z,99.99
2018-04-28T03:39:00.210Z,99.99
2018-04-28T03:40:00.881Z,99.99
2018-04-28T03:41:01.557Z,99.99
2018-04-28T03:42:02.232Z,99.99
2018-04-28T03:43:02.900Z,99.99
2018-04-28T03:44:03.572Z,99.99
2018-04-28T03:45:04.247Z,99.99
2018-04-28T03:46:04.921Z,99.99
2018-04-28T03:47:05.596Z,99.99
2018-04-28T03:48:06.268Z,99.99
2018-04-28T03:49:06.943Z,99.99
2018-04-28T03:50:07.615Z,99.99
2018-04-28T03:51:08.289Z,99.99
2018-04-28T03:52:08.959Z,99.99
2018-04-28T03:53:09.629Z,99.99
2018-04-28T03:54:10.313Z,99.99
2018-04-28T03:55:10.985Z,99.99
2018-04-28T03:56:11.656Z,99.99
2018-04-28T03:57:12.325Z,99.99
2018-04-28T03:58:12.996Z,99.99
2018-04-28T03:59:13.672Z,99.99
2018-04-28T04:00:14.358Z,99.99
2018-04-28T04:01:15.029Z,99.99
2018-04-28T04:02:15.704Z,99.99
2018-04-28T04:03:16.372Z,99.99
2018-04-28T04:04:17.043Z,99.99
2018-04-28T04:05:17.717Z,99.99
2018-04-28T04:06:18.386Z,99.99
2018-04-28T04:07:19.058Z,99.99
2018-04-28T04:08:19.732Z,99.99
2018-04-28T04:09:20.404Z,99.99
2018-04-28T04:10:21.079Z,99.99
2018-04-28T04:11:21.753Z,99.99
2018-04-28T04:12:22.427Z,99.99
2018-04-28T04:13:23.104Z,99.99
2018-04-28T04:14:23.789Z,99.99
2018-04-28T04:15:24.466Z,99.99
2018-04-28T04:16:25.137Z,99.99
2018-04-28T04:17:25.813Z,99.99
2018-04-28T04:18:26.481Z,99.99
2018-04-28T04:19:27.165Z,99.99
2018-04-28T04:20:27.833Z,99.99
2018-04-28T04:21:28.510Z,99.99
2018-04-28T04:22:29.187Z,99.99
2018-04-28T04:23:29.857Z,99.99
2018-04-28T04:24:30.529Z,99.99
2018-04-28T04:25:31.210Z,99.99
2018-04-28T04:26:31.954Z,99.99
2018-04-28T04:27:32.556Z,99.99
2018-04-28T04:28:33.236Z,99.99
2018-04-28T04:29:33.909Z,99.99
2018-04-28T04:30:34.583Z,99.99
2018-04-28T04:31:35.255Z,99.99
2018-04-28T04:32:35.928Z,99.99
2018-04-28T04:33:36.600Z,99.99
2018-04-28T04:34:37.270Z,99.99
2018-04-28T04:35:37.942Z,99.99
2018-04-28T04:36:38.616Z,99.99
2018-04-28T04:37:39.301Z,99.99
2018-04-28T04:38:39.966Z,99.99
2018-04-28T04:39:40.638Z,99.99
2018-04-28T04:40:41.314Z,99.99
2018-04-28T04:41:41.983Z,99.99
2018-04-28T04:42:42.670Z,99.99
2018-04-28T04:43:43.342Z,99.99
2018-04-28T04:44:44.018Z,99.99
2018-04-28T04:45:44.692Z,99.99
2018-04-28T04:46:45.366Z,99.99
2018-04-28T04:47:46.038Z,99.99
2018-04-28T04:48:46.715Z,99.99
2018-04-28T04:49:47.399Z,99.99
2018-04-28T04:50:48.072Z,99.99
2018-04-28T04:51:48.748Z,99.99
2018-04-28T04:52:49.434Z,99.99
2018-04-28T04:53:50.100Z,99.99
2018-04-28T04:54:50.780Z,99.99
2018-04-28T04:55:51.453Z,99.99
2018-04-28T04:56:52.132Z,99.99
2018-04-28T04:57:52.802Z,99.99
2018-04-28T04:58:53.484Z,99.99
2018-04-28T04:59:54.165Z,99.99
2018-04-28T05:00:54.834Z,99.99
2018-04-28T05:01:55.507Z,99.99
2018-04-28T05:02:56.183Z,99.99
2018-04-28T05:03:56.859Z,99.99
2018-04-28T05:04:57.532Z,99.99
2018-04-28T05:05:58.208Z,99.99
2018-04-28T05:06:58.881Z,99.99
2018-04-28T05:07:59.556Z,99.99
2018-04-28T05:09:00.234Z,99.99
2018-04-28T05:10:00.904Z,99.99
2018-04-28T05:11:01.580Z,99.99
2018-04-28T05:12:02.252Z,99.99
2018-04-28T05:13:02.928Z,99.99
2018-04-28T05:14:03.605Z,99.99
2018-04-28T05:15:04.279Z,99.99
2018-04-28T05:16:04.954Z,99.99
2018-04-28T05:17:05.631Z,99.99
2018-04-28T05:18:06.304Z,99.99
2018-04-28T05:19:07.064Z,99.99
2018-04-28T05:20:07.665Z,99.99
2018-04-28T05:21:08.338Z,99.99
2018-04-28T05:22:09.013Z,99.99
2018-04-28T05:23:09.691Z,99.99
2018-04-28T05:24:10.366Z,99.99
2018-04-28T05:25:11.040Z,99.99
2018-04-28T05:26:11.714Z,99.99
2018-04-28T05:27:12.393Z,99.99
2018-04-28T05:28:13.081Z,99.99
2018-04-28T05:29:13.755Z,99.99
2018-04-28T05:30:14.430Z,99.99
2018-04-28T05:31:15.102Z,99.99
2018-04-28T05:32:15.782Z,99.99
2018-04-28T05:33:16.458Z,99.99
2018-04-28T05:34:17.137Z,99.99
2018-04-28T05:35:17.812Z,99.99
2018-04-28T05:36:18.488Z,99.99
2018-04-28T05:37:19.165Z,99.99
2018-04-28T05:38:19.855Z,99.99
2018-04-28T05:39:20.519Z,99.99
2018-04-28T05:40:21.197Z,99.99
2018-04-28T05:41:21.881Z,99.99
2018-04-28T05:42:22.556Z,99.99
2018-04-28T05:43:23.231Z,99.99
2018-04-28T05:44:23.906Z,99.99
2018-04-28T05:45:24.581Z,99.99
2018-04-28T05:46:25.270Z,99.99
2018-04-28T05:47:25.943Z,99.99
2018-04-28T05:48:26.633Z,99.99
2018-04-28T05:49:27.293Z,99.99
2018-04-28T05:50:27.970Z,99.99
2018-04-28T05:51:28.647Z,99.99
2018-04-28T05:52:29.324Z,99.99
2018-04-28T05:53:30.007Z,99.99
2018-04-28T05:54:30.682Z,99.99
2018-04-28T05:55:31.357Z,99.99
2018-04-28T05:56:32.036Z,99.99
2018-04-28T05:57:32.710Z,99.99
2018-04-28T05:58:33.386Z,99.99
2018-04-28T05:59:34.064Z,99.99
2018-04-28T06:00:34.739Z,99.99
2018-04-28T06:01:35.416Z,99.99
2018-04-28T06:02:36.092Z,99.99
2018-04-28T06:03:36.772Z,99.99
2018-04-28T06:04:37.453Z,99.99
2018-04-28T06:05:38.137Z,99.99
2018-04-28T06:06:38.809Z,99.99
2018-04-28T06:07:39.490Z,99.99
2018-04-28T06:08:40.176Z,99.99
2018-04-28T06:09:40.851Z,99.99
2018-04-28T06:10:41.529Z,99.99
2018-04-28T06:11:42.213Z,99.99
2018-04-28T06:12:42.887Z,99.99
2018-04-28T06:13:43.564Z,99.99
2018-04-28T06:14:44.244Z,99.99
2018-04-28T06:15:44.924Z,99.99
2018-04-28T06:16:45.602Z,99.99
2018-04-28T06:17:46.279Z,99.99
2018-04-28T06:18:46.956Z,99.99
2018-04-28T06:19:47.665Z,99.99
2018-04-28T06:20:48.313Z,99.99
2018-04-28T06:21:48.991Z,99.99
2018-04-28T06:22:49.669Z,99.99
2018-04-28T06:23:50.355Z,99.99
2018-04-28T06:24:51.032Z,99.99
2018-04-28T06:25:51.760Z,99.99
2018-04-28T06:26:52.385Z,99.99
2018-04-28T06:27:53.065Z,99.99
2018-04-28T06:28:53.743Z,99.99
2018-04-28T06:29:54.421Z,99.99
2018-04-28T06:30:55.107Z,99.99
2018-04-28T06:31:55.787Z,99.99
2018-04-28T06:32:56.460Z,99.99
2018-04-28T06:33:57.137Z,99.99
2018-04-28T06:34:57.814Z,99.99
2018-04-28T06:35:58.505Z,99.99
2018-04-28T06:36:59.185Z,99.99
2018-04-28T06:37:59.868Z,99.99
2018-04-28T06:39:00.549Z,99.99
2018-04-28T06:40:01.230Z,99.99
2018-04-28T06:41:01.905Z,99.66
2018-04-28T06:42:02.585Z,99.99
2018-04-28T06:43:03.259Z,99.99
2018-04-28T06:44:03.943Z,99.99
2018-04-28T06:45:04.618Z,99.62
2018-04-28T06:46:05.302Z,98.85
2018-04-28T06:47:05.981Z,98.38
2018-04-28T06:48:06.658Z,99.14
2018-04-28T06:49:07.331Z,98.95
2018-04-28T06:50:08.012Z,98.47
2018-04-28T06:51:08.695Z,98.38
2018-04-28T06:52:09.362Z,97.80
2018-04-28T06:53:10.047Z,98.61
2018-04-28T06:54:10.727Z,99.67
2018-04-28T06:55:11.403Z,99.62
2018-04-28T06:56:12.078Z,99.67
2018-04-28T06:57:12.765Z,99.67
2018-04-28T06:58:13.439Z,99.99
2018-04-28T06:59:14.115Z,99.67
2018-04-28T07:00:14.794Z,99.86
2018-04-28T07:01:15.467Z,99.99
2018-04-28T07:02:16.164Z,99.99
2018-04-28T07:03:16.833Z,99.99
2018-04-28T07:04:17.525Z,99.99
2018-04-28T07:05:18.207Z,99.99
2018-04-28T07:06:18.890Z,99.99
2018-04-28T07:07:19.573Z,99.99
2018-04-28T07:08:20.249Z,99.99
2018-04-28T07:09:20.929Z,99.99
2018-04-28T07:10:21.611Z,99.99
2018-04-28T07:11:22.289Z,99.99
2018-04-28T07:12:22.973Z,99.99
2018-04-28T07:13:23.656Z,99.99
2018-04-28T07:14:24.335Z,99.99
2018-04-28T07:15:25.011Z,99.52
2018-04-28T07:16:25.701Z,99.96
2018-04-28T07:17:26.381Z,99.58
2018-04-28T07:18:27.060Z,99.10
2018-04-28T07:19:27.741Z,99.29
2018-04-28T07:20:28.418Z,99.29
2018-04-28T07:21:29.100Z,99.29
2018-04-28T07:22:29.781Z,98.62
2018-04-28T07:23:30.464Z,98.19
2018-04-28T07:24:31.156Z,98.19
2018-04-28T07:25:31.836Z,97.90
2018-04-28T07:26:32.520Z,96.94
2018-04-28T07:27:33.200Z,97.04
2018-04-28T07:28:33.877Z,96.66
2018-04-28T07:29:34.562Z,96.27
2018-04-28T07:30:35.238Z,95.12
2018-04-28T07:31:35.921Z,94.45
2018-04-28T07:32:36.598Z,95.26
2018-04-28T07:33:37.285Z,94.31
2018-04-28T07:34:37.965Z,93.73
2018-04-28T07:35:38.650Z,93.83
2018-04-28T07:36:39.329Z,93.44
2018-04-28T07:37:40.008Z,92.97
2018-04-28T07:38:40.699Z,92.30
2018-04-28T07:39:41.368Z,93.35
2018-04-28T07:40:42.046Z,92.58
2018-04-28T07:41:42.722Z,93.06
2018-04-28T07:42:43.402Z,93.06
2018-04-28T07:43:44.088Z,92.97
2018-04-28T07:44:44.768Z,92.20
2018-04-28T07:45:45.449Z,91.96
2018-04-28T07:46:46.136Z,92.39
2018-04-28T07:47:46.814Z,93.01
2018-04-28T07:48:47.492Z,93.21
2018-04-28T07:49:48.169Z,92.34
2018-04-28T07:50:48.848Z,92.82
2018-04-28T07:51:49.544Z,93.11
2018-04-28T07:52:50.224Z,92.48
2018-04-28T07:53:50.911Z,92.00
2018-04-28T07:54:51.588Z,91.81
2018-04-28T07:55:52.279Z,91.05
2018-04-28T07:56:52.958Z,90.28
2018-04-28T07:57:53.643Z,89.61
2018-04-28T07:58:54.320Z,87.88
2018-04-28T07:59:54.998Z,85.58
2018-04-28T08:00:55.682Z,84.61
2018-04-28T08:01:56.369Z,84.66
2018-04-28T08:02:57.049Z,84.37
2018-04-28T08:03:57.732Z,84.66
2018-04-28T08:04:58.418Z,84.27
2018-04-28T08:05:59.094Z,84.08
2018-04-28T08:06:59.856Z,81.59
2018-04-28T08:08:00.457Z,81.10
2018-04-28T08:09:01.155Z,80.09
2018-04-28T08:10:01.832Z,79.67
2018-04-28T08:11:02.524Z,78.23
2018-04-28T08:12:03.205Z,77.75
2018-04-28T08:13:03.889Z,77.17
2018-04-28T08:14:04.570Z,76.79
2018-04-28T08:15:05.257Z,76.79
2018-04-28T08:16:05.939Z,77.01
2018-04-28T08:17:06.626Z,75.48
2018-04-28T08:18:07.313Z,74.81
2018-04-28T08:19:07.993Z,74.52
2018-04-28T08:20:08.683Z,74.90
2018-04-28T08:21:09.359Z,73.66
2018-04-28T08:22:10.044Z,73.41
2018-04-28T08:23:10.719Z,71.58
2018-04-28T08:24:11.398Z,70.33
2018-04-28T08:25:12.081Z,68.51
2018-04-28T08:26:12.765Z,69.18
2018-04-28T08:27:13.444Z,67.90
2018-04-28T08:28:14.123Z,68.02
2018-04-28T08:29:14.819Z,67.48
2018-04-28T08:30:15.500Z,67.48
2018-04-28T08:31:16.186Z,66.27
2018-04-28T08:32:16.875Z,64.22
2018-04-28T08:33:17.557Z,64.31
2018-04-28T08:34:18.237Z,65.11
2018-04-28T08:35:18.923Z,64.53
2018-04-28T08:36:19.673Z,64.56
2018-04-28T08:37:20.317Z,63.99
2018-04-28T08:38:20.977Z,63.99
2018-04-28T08:39:21.661Z,63.22
2018-04-28T08:40:22.346Z,62.74
2018-04-28T08:41:23.033Z,62.83
2018-04-28T08:42:23.721Z,62.83
2018-04-28T08:43:24.399Z,62.45
2018-04-28T08:44:25.083Z,61.68
2018-04-28T08:45:25.841Z,61.87
2018-04-28T08:46:26.444Z,63.79
2018-04-28T08:47:27.126Z,62.41
2018-04-28T08:48:27.807Z,61.55
2018-04-28T08:49:28.561Z,61.77
2018-04-28T08:50:29.176Z,61.97
2018-04-28T08:51:29.868Z,61.97
2018-04-28T08:52:30.552Z,60.24
2018-04-28T08:53:31.234Z,61.00
2018-04-28T08:54:31.917Z,60.24
2018-04-28T08:55:32.608Z,59.66
2018-04-28T08:56:33.378Z,59.47
2018-04-28T08:57:33.973Z,60.14
2018-04-28T08:58:34.658Z,60.24
2018-04-28T08:59:35.338Z,59.85
2018-04-28T09:00:36.025Z,59.15
2018-04-28T09:01:36.702Z,59.15
2018-04-28T09:02:37.387Z,59.15
2018-04-28T09:03:38.139Z,59.34
2018-04-28T09:04:38.751Z,58.86
2018-04-28T09:05:39.428Z,59.63
2018-04-28T09:06:40.125Z,60.59
2018-04-28T09:07:40.802Z,60.21
2018-04-28T09:08:41.492Z,60.69
2018-04-28T09:09:42.173Z,60.24
2018-04-28T09:10:42.852Z,60.72
2018-04-28T09:11:43.539Z,60.72
2018-04-28T09:12:44.227Z,61.36
2018-04-28T09:13:44.915Z,60.33
2018-04-28T09:14:45.595Z,59.82
2018-04-28T09:15:46.276Z,59.05
2018-04-28T09:16:46.961Z,59.82
2018-04-28T09:17:47.640Z,59.53
2018-04-28T09:18:48.328Z,60.01
2018-04-28T09:19:49.010Z,59.47
2018-04-28T09:20:49.695Z,59.15
2018-04-28T09:21:50.381Z,59.63
2018-04-28T09:22:51.073Z,58.89
2018-04-28T09:23:51.751Z,60.39
2018-04-28T09:24:52.433Z,61.26
2018-04-28T09:25:53.117Z,62.71
2018-04-28T09:26:53.797Z,61.58
2018-04-28T09:27:54.479Z,60.78
2018-04-28T09:28:55.175Z,59.72
2018-04-28T09:29:55.854Z,59.75
2018-04-28T09:30:56.535Z,61.19
2018-04-28T09:31:57.228Z,60.52
2018-04-28T09:32:57.929Z,59.94
2018-04-28T09:33:58.529Z,60.24
2018-04-28T09:34:59.263Z,60.72
2018-04-28T09:35:59.952Z,60.81
2018-04-28T09:37:00.631Z,61.80
2018-04-28T09:38:01.316Z,61.04
2018-04-28T09:39:02.005Z,61.52
2018-04-28T09:40:02.785Z,61.22
2018-04-28T09:41:03.384Z,60.65
2018-04-28T09:42:04.068Z,60.62
2018-04-28T09:43:04.750Z,60.94
2018-04-28T09:44:05.431Z,61.61
2018-04-28T09:45:06.113Z,60.84
2018-04-28T09:46:06.796Z,60.36
2018-04-28T09:47:07.476Z,60.27
2018-04-28T09:48:08.154Z,58.05
2018-04-28T09:49:08.843Z,57.76
2018-04-28T09:50:09.528Z,58.44
2018-04-28T09:51:10.217Z,58.15
2018-04-28T09:52:10.912Z,59.30
2018-04-28T09:53:11.589Z,59.88
2018-04-28T09:54:12.278Z,59.20
2018-04-28T09:55:12.965Z,59.47
2018-04-28T09:56:13.652Z,59.40
2018-04-28T09:57:14.332Z,60.07
2018-04-28T09:58:15.012Z,61.71
2018-04-28T09:59:15.690Z,61.22
2018-04-28T10:00:16.371Z,61.74
2018-04-28T10:01:17.052Z,59.91
2018-04-28T10:02:17.734Z,60.00
2018-04-28T10:03:18.420Z,60.00
2018-04-28T10:04:19.106Z,59.04
2018-04-28T10:05:19.784Z,60.13
2018-04-28T10:06:20.467Z,60.32
2018-04-28T10:07:21.149Z,60.52
2018-04-28T10:08:21.824Z,59.55
2018-04-28T10:09:22.586Z,59.17
2018-04-28T10:10:23.191Z,58.91
2018-04-28T10:11:23.872Z,57.65
2018-04-28T10:12:24.562Z,56.76
2018-04-28T10:13:25.963Z,56.98
2018-04-28T10:14:26.665Z,57.94
2018-04-28T10:15:27.356Z,57.43
2018-04-28T10:16:28.042Z,55.82
2018-04-28T10:17:28.736Z,55.44
2018-04-28T10:18:29.419Z,55.60
2018-04-28T10:19:30.112Z,54.96
2018-04-28T10:20:30.790Z,55.41
2018-04-28T10:21:31.474Z,55.63
2018-04-28T10:22:32.158Z,55.60
2018-04-28T10:23:32.838Z,54.74
2018-04-28T10:24:33.521Z,55.24
2018-04-28T10:25:34.200Z,55.70
2018-04-28T10:26:34.891Z,56.11
2018-04-28T10:27:35.589Z,56.01
2018-04-28T10:28:36.988Z,55.54
2018-04-28T10:29:37.698Z,53.22
2018-04-28T10:30:38.381Z,51.97
2018-04-28T10:31:39.066Z,52.83
2018-04-28T10:32:39.746Z,52.45
2018-04-28T10:33:41.147Z,52.25
2018-04-28T10:34:42.307Z,52.83
2018-04-28T10:35:43.098Z,53.41
2018-04-28T10:36:43.786Z,52.93
2018-04-28T10:37:44.463Z,52.93
2018-04-28T10:38:45.148Z,53.63
2018-04-28T10:39:45.839Z,53.92
2018-04-28T10:40:46.528Z,53.95
2018-04-28T10:41:47.210Z,52.98
2018-04-28T10:42:47.900Z,53.05
2018-04-28T10:43:48.577Z,52.79
2018-04-28T10:44:49.280Z,53.66
2018-04-28T10:45:49.977Z,54.05
2018-04-28T10:46:50.664Z,53.37
2018-04-28T10:47:51.349Z,55.30
2018-04-28T10:48:52.025Z,54.14
2018-04-28T10:49:52.716Z,53.83
2018-04-28T10:50:53.408Z,54.62
2018-04-28T10:51:54.080Z,55.40
2018-04-28T10:52:54.773Z,54.31
2018-04-28T10:53:55.500Z,54.72
2018-04-28T10:54:56.140Z,55.40
2018-04-28T10:55:56.828Z,55.01
2018-04-28T10:56:57.522Z,54.24
2018-04-28T10:57:58.201Z,54.82
2018-04-28T10:58:58.888Z,52.79
2018-04-28T10:59:59.571Z,52.89
2018-04-28T11:01:00.250Z,53.66
2018-04-28T11:02:00.933Z,53.37
2018-04-28T11:03:01.620Z,53.56
2018-04-28T11:04:02.302Z,55.04
2018-04-28T11:05:02.988Z,56.00
2018-04-28T11:06:03.676Z,54.55
2018-04-28T11:07:04.364Z,54.10
2018-04-28T11:08:05.049Z,53.52
2018-04-28T11:09:05.734Z,52.94
2018-04-28T11:10:06.418Z,51.78
2018-04-28T11:11:07.100Z,51.10
2018-04-28T11:12:07.781Z,52.19
2018-04-28T11:13:08.463Z,53.06
2018-04-28T11:14:09.146Z,53.06
2018-04-28T11:15:09.834Z,51.06
2018-04-28T11:16:10.545Z,49.22
2018-04-28T11:17:11.229Z,49.60
2018-04-28T11:18:11.913Z,49.32
2018-04-28T11:19:12.599Z,49.60
2018-04-28T11:20:13.279Z,49.32
2018-04-28T11:21:13.962Z,48.49
2018-04-28T11:22:14.649Z,49.00
2018-04-28T11:23:15.330Z,49.90
2018-04-28T11:24:16.014Z,49.41
2018-04-28T11:25:16.698Z,47.09
2018-04-28T11:26:17.380Z,47.77
2018-04-28T11:27:18.059Z,49.12
2018-04-28T11:28:18.745Z,49.92
2018-04-28T11:29:19.428Z,48.06
2018-04-28T11:30:20.108Z,48.08
2018-04-28T11:31:20.797Z,47.41
2018-04-28T11:32:21.480Z,48.20
2018-04-28T11:33:22.165Z,45.88
2018-04-28T11:34:22.850Z,45.44
2018-04-28T11:35:23.534Z,44.92
2018-04-28T11:36:24.217Z,41.49
2018-04-28T11:37:24.909Z,39.61
2018-04-28T11:38:25.597Z,38.40
2018-04-28T11:39:26.279Z,37.46
2018-04-28T11:40:26.968Z,35.63
2018-04-28T11:41:27.658Z,35.60
2018-04-28T11:42:28.342Z,33.34
2018-04-28T11:43:29.035Z,33.25
2018-04-28T11:44:29.736Z,31.67
2018-04-28T11:45:30.424Z,30.66
2018-04-28T11:46:31.107Z,29.55
2018-04-28T11:47:31.799Z,28.81
2018-04-28T11:48:32.492Z,27.57
2018-04-28T11:49:33.182Z,26.50
2018-04-28T11:50:33.872Z,26.28
2018-04-28T11:51:34.558Z,27.64
2018-04-28T11:52:35.244Z,29.08
2018-04-28T11:53:35.930Z,28.30
2018-04-28T11:54:36.612Z,26.68
2018-04-28T11:55:37.297Z,25.24
2018-04-28T11:56:37.980Z,26.23
2018-04-28T11:57:38.678Z,26.19
2018-04-28T11:58:39.366Z,26.12
2018-04-28T11:59:40.054Z,25.43
2018-04-28T12:00:40.744Z,25.82
2018-04-28T12:01:41.431Z,26.95
2018-04-28T12:02:42.191Z,26.18
2018-04-28T12:03:42.798Z,26.17
2018-04-28T12:04:43.489Z,26.73
2018-04-28T12:05:44.196Z,27.98
2018-04-28T12:06:44.880Z,28.53
2018-04-28T12:07:45.567Z,29.82
2018-04-28T12:08:46.257Z,29.80
2018-04-28T12:09:46.942Z,29.88
2018-04-28T12:10:47.626Z,29.77
2018-04-28T12:11:48.314Z,29.87
2018-04-28T12:12:48.998Z,31.52
2018-04-28T12:13:49.692Z,31.21
2018-04-28T12:14:50.383Z,31.60
2018-04-28T12:15:51.082Z,32.17
2018-04-28T12:16:51.767Z,31.48
2018-04-28T12:17:52.455Z,31.18
2018-04-28T12:18:53.147Z,32.53
2018-04-28T12:19:53.821Z,32.35
2018-04-28T12:20:54.562Z,32.56
2018-04-28T12:21:55.192Z,32.37
2018-04-28T12:22:55.890Z,30.00
2018-04-28T12:23:56.581Z,30.20
2018-04-28T12:24:57.276Z,30.27
2018-04-28T12:25:57.967Z,30.48
2018-04-28T12:26:58.653Z,29.90
2018-04-28T12:27:59.342Z,29.44
2018-04-28T12:29:00.030Z,29.94
2018-04-28T12:30:00.796Z,30.32
2018-04-28T12:31:01.418Z,30.32
2018-04-28T12:32:02.111Z,30.13
2018-04-28T12:33:02.807Z,30.61
2018-04-28T12:34:03.502Z,30.20
2018-04-28T12:35:04.188Z,31.20
2018-04-28T12:36:04.897Z,32.68
2018-04-28T12:37:05.570Z,31.81
2018-04-28T12:38:06.267Z,31.32
2018-04-28T12:39:06.951Z,30.75
2018-04-28T12:40:07.638Z,31.62
2018-04-28T12:41:08.333Z,32.01
2018-04-28T12:42:09.021Z,31.03
2018-04-28T12:43:09.708Z,30.72
2018-04-28T12:44:10.395Z,31.80
2018-04-28T12:45:11.092Z,32.29
2018-04-28T12:46:11.778Z,31.78
2018-04-28T12:47:12.465Z,32.06
2018-04-28T12:48:13.158Z,32.16
2018-04-28T12:49:13.857Z,32.23
2018-04-28T12:50:14.550Z,32.40
2018-04-28T12:51:15.240Z,31.84
2018-04-28T12:52:15.925Z,32.23
2018-04-28T12:53:16.613Z,33.41
2018-04-28T12:54:17.300Z,33.79
2018-04-28T12:55:17.987Z,33.97
2018-04-28T12:56:18.676Z,33.48
2018-04-28T12:57:19.363Z,33.48
2018-04-28T12:58:20.063Z,33.85
2018-04-28T12:59:20.749Z,34.52
2018-04-28T13:00:21.442Z,35.49
2018-04-28T13:01:22.145Z,35.00